Time,TemperatureF,DewpointF,PressureIn,WindDirection,WindDirectionDegrees,WindSpeedMPH,WindSpeedGustMPH,Humidity,HourlyPrecipIn,Conditions,Clouds,dailyrainin,SoftwareType,DateUTC
2013-07-08 00:01:00,82.0,81.4,32.24,SE,135,0.0,0.0,98,0.00,CLR,,0.00,WeatherDisplay:10.37,2013-07-08 04:01:00,
2013-07-08 00:06:00,82.0,81.4,32.36,SE,135,0.0,0.0,98,0.00,CLR,,0.00,WeatherDisplay:10.37,2013-07-08 04:06:00,
2013-07-08 00:11:00,82.0,81.4,32.36,SE,135,0.0,0.0,98,0.00,CLR,,0.00,WeatherDisplay:10.37,2013-07-08 04:11:00,
2013-07-08 00:16:00,82.0,81.4,32.48,SE,135,0.0,0.0,98,0.00,CLR,,0.00,WeatherDisplay:10.37,2013-07-08 04:16:00,
2013-07-08 00:21:00,82.0,81.4,32.48,SE,135,0.0,0.0,98,0.00,CLR,,0.00,WeatherDisplay:10.37,2013-07-08 04:21:00,
2013-07-08 00:26:00,82.0,81.4,32.48,SE,135,0.0,0.0,98,0.00,CLR,,0.00,WeatherDisplay:10.37,2013-07-08 04:26:00,
2013-07-08 00:31:00,81.9,81.3,31.83,SE,135,0.0,0.0,98,0.00,CLR,,0.00,WeatherDisplay:10.37,2013-07-08 04:31:00,
2013-07-08 00:36:00,81.9,81.3,31.83,SE,135,0.0,0.0,98,0.00,CLR,,0.00,WeatherDisplay:10.37,2013-07-08 04:36:00,
2013-07-08 00:41:00,81.9,81.3,31.83,SE,135,0.0,0.0,98,0.00,CLR,,0.00,WeatherDisplay:10.37,2013-07-08 04:41:00,
2013-07-08 00:46:00,81.5,80.9,31.83,SE,135,0.0,0.0,98,0.00,CLR,,0.00,WeatherDisplay:10.37,2013-07-08 04:46:00,
2013-07-08 00:51:00,81.5,80.9,31.83,SE,135,0.0,0.0,98,0.00,CLR,,0.00,WeatherDisplay:10.37,2013-07-08 04:51:00,
2013-07-08 00:56:00,81.5,80.9,31.83,SE,135,0.0,0.0,98,0.00,CLR,,0.00,WeatherDisplay:10.37,2013-07-08 04:56:00,
2013-07-08 01:01:00,81.3,80.7,31.83,SE,135,0.0,0.0,98,0.00,CLR,,0.00,WeatherDisplay:10.37,2013-07-08 05:01:00,
2013-07-08 01:06:00,81.3,80.7,31.83,SE,135,0.0,0.0,98,0.00,CLR,,0.00,WeatherDisplay:10.37,2013-07-08 05:06:00,
2013-07-08 01:11:00,81.3,80.7,31.83,SE,135,0.0,0.0,98,0.00,CLR,,0.00,WeatherDisplay:10.37,2013-07-08 05:11:00,
2013-07-08 01:16:00,81.3,80.7,31.83,SE,135,0.0,0.0,98,0.00,CLR,,0.00,WeatherDisplay:10.37,2013-07-08 05:16:00,
2013-07-08 01:21:00,81.3,80.7,31.83,SE,135,0.0,0.0,98,0.00,CLR,,0.00,WeatherDisplay:10.37,2013-07-08 05:21:00,
2013-07-08 01:26:00,81.3,80.7,31.83,SE,135,0.0,0.0,98,0.00,CLR,,0.00,WeatherDisplay:10.37,2013-07-08 05:26:00,
2013-07-08 01:31:00,81.1,80.5,31.83,SE,135,0.0,0.0,98,0.00,CLR,,0.00,WeatherDisplay:10.37,2013-07-08 05:31:00,
2013-07-08 01:36:00,81.1,80.5,31.83,SE,135,0.0,0.0,98,0.00,CLR,,0.00,WeatherDisplay:10.37,2013-07-08 05:36:00,
2013-07-08 01:41:00,81.1,80.5,31.83,SE,135,0.0,0.0,98,0.00,CLR,,0.00,WeatherDisplay:10.37,2013-07-08 05:41:00,
2013-07-08 01:46:00,81.0,80.4,31.83,SE,135,0.0,0.0,98,0.00,CLR,,0.00,WeatherDisplay:10.37,2013-07-08 05:46:00,
2013-07-08 01:51:00,81.0,80.4,31.83,SE,135,0.0,0.0,98,0.00,CLR,,0.00,WeatherDisplay:10.37,2013-07-08 05:51:00,
2013-07-08 01:56:00,81.0,80.4,32.11,SE,135,0.0,0.0,98,0.00,CLR,,0.00,WeatherDisplay:10.37,2013-07-08 05:56:00,
2013-07-08 02:01:00,81.0,80.4,32.11,SE,135,0.0,0.0,98,0.00,CLR,,0.00,WeatherDisplay:10.37,2013-07-08 06:01:00,
2013-07-08 02:07:00,81.0,80.4,30.39,SE,135,0.0,0.0,98,0.00,CLR,,0.00,WeatherDisplay:10.37,2013-07-08 06:07:00,
2013-07-08 02:12:00,81.0,80.4,30.39,SE,135,0.0,0.0,98,0.00,CLR,,0.00,WeatherDisplay:10.37,2013-07-08 06:12:00,
2013-07-08 02:17:00,81.0,80.4,29.33,SE,135,0.0,0.0,98,0.00,CLR,,0.00,WeatherDisplay:10.37,2013-07-08 06:17:00,
2013-07-08 02:22:00,81.0,80.4,29.33,SE,135,0.0,0.0,98,0.00,CLR,,0.00,WeatherDisplay:10.37,2013-07-08 06:22:00,
2013-07-08 02:27:00,81.0,80.4,29.33,SE,135,0.0,0.0,98,0.00,CLR,,0.00,WeatherDisplay:10.37,2013-07-08 06:27:00,
2013-07-08 02:32:00,80.8,80.2,28.58,SE,135,0.0,0.0,98,0.00,CLR,,0.00,WeatherDisplay:10.37,2013-07-08 06:32:00,
2013-07-08 02:37:00,80.8,80.2,28.58,SE,135,0.0,0.0,98,0.00,CLR,,0.00,WeatherDisplay:10.37,2013-07-08 06:37:00,
2013-07-08 02:42:00,80.8,80.2,28.00,SE,135,0.0,0.0,98,0.00,CLR,,0.00,WeatherDisplay:10.37,2013-07-08 06:42:00,
2013-07-08 02:47:00,80.8,80.2,28.00,SE,135,0.0,0.0,98,0.00,CLR,,0.00,WeatherDisplay:10.37,2013-07-08 06:47:00,
2013-07-08 02:52:00,80.8,80.2,28.40,SE,135,0.0,0.0,98,0.00,CLR,,0.00,WeatherDisplay:10.37,2013-07-08 06:52:00,
2013-07-08 02:57:00,80.8,80.2,28.40,SE,135,0.0,0.0,98,0.00,CLR,,0.00,WeatherDisplay:10.37,2013-07-08 06:57:00,
2013-07-08 03:02:00,80.8,80.2,28.40,SE,135,0.0,0.0,98,0.00,CLR,,0.00,WeatherDisplay:10.37,2013-07-08 07:02:00,
2013-07-08 03:07:00,80.8,80.2,30.16,SE,135,0.0,0.0,98,0.00,CLR,,0.00,WeatherDisplay:10.37,2013-07-08 07:07:00,
2013-07-08 03:12:00,80.8,80.2,30.16,SE,135,0.0,0.0,98,0.00,CLR,,0.00,WeatherDisplay:10.37,2013-07-08 07:12:00,
2013-07-08 03:17:00,80.8,80.2,31.47,SE,135,0.0,0.0,98,0.00,CLR,,0.00,WeatherDisplay:10.37,2013-07-08 07:17:00,
2013-07-08 03:22:00,80.6,80.0,31.47,SE,135,0.0,0.0,98,0.00,CLR,,0.00,WeatherDisplay:10.37,2013-07-08 07:22:00,
2013-07-08 03:27:00,80.6,80.0,31.47,SE,135,0.0,0.0,98,0.00,CLR,,0.00,WeatherDisplay:10.37,2013-07-08 07:27:00,
2013-07-08 03:32:00,80.4,79.8,32.18,SE,135,0.0,0.0,98,0.00,CLR,,0.00,WeatherDisplay:10.37,2013-07-08 07:32:00,
2013-07-08 03:37:00,80.4,79.8,32.18,SE,135,0.0,0.0,98,0.00,CLR,,0.00,WeatherDisplay:10.37,2013-07-08 07:37:00,
2013-07-08 03:42:00,80.4,79.8,31.47,SE,135,0.0,0.0,98,0.00,CLR,,0.00,WeatherDisplay:10.37,2013-07-08 07:42:00,
2013-07-08 03:47:00,80.4,79.8,31.47,SE,135,0.0,0.0,98,0.00,CLR,,0.00,WeatherDisplay:10.37,2013-07-08 07:47:00,
2013-07-08 03:52:00,80.4,79.8,31.47,SE,135,0.0,0.0,98,0.00,CLR,,0.00,WeatherDisplay:10.37,2013-07-08 07:52:00,
2013-07-08 03:57:00,80.4,79.8,31.47,SE,135,0.0,0.0,98,0.00,CLR,,0.00,WeatherDisplay:10.37,2013-07-08 07:57:00,
2013-07-08 04:02:00,80.6,80.0,31.47,SE,135,0.0,0.0,98,0.00,CLR,,0.00,WeatherDisplay:10.37,2013-07-08 08:02:00,
2013-07-08 04:07:00,80.6,80.0,31.47,SE,135,0.0,0.0,98,0.00,CLR,,0.00,WeatherDisplay:10.37,2013-07-08 08:07:00,
2013-07-08 04:12:00,80.6,80.0,31.47,SE,135,0.0,0.0,98,0.00,CLR,,0.00,WeatherDisplay:10.37,2013-07-08 08:12:00,
2013-07-08 04:17:00,80.6,80.0,31.47,SE,135,0.0,0.0,98,0.00,CLR,,0.00,WeatherDisplay:10.37,2013-07-08 08:17:00,
2013-07-08 04:22:00,80.6,80.0,31.47,SE,135,0.0,0.0,98,0.00,CLR,,0.00,WeatherDisplay:10.37,2013-07-08 08:22:00,
2013-07-08 04:27:00,80.6,80.0,31.47,SE,135,0.0,0.0,98,0.00,CLR,,0.00,WeatherDisplay:10.37,2013-07-08 08:27:00,
2013-07-08 04:32:00,80.6,80.0,31.52,SE,135,0.0,0.0,98,0.00,CLR,,0.00,WeatherDisplay:10.37,2013-07-08 08:32:00,
2013-07-08 04:37:00,80.6,80.0,31.52,SE,135,0.0,0.0,98,0.00,CLR,,0.00,WeatherDisplay:10.37,2013-07-08 08:37:00,
2013-07-08 04:42:00,80.4,79.8,31.52,SE,135,0.0,0.0,98,0.00,CLR,,0.00,WeatherDisplay:10.37,2013-07-08 08:42:00,
2013-07-08 04:47:00,80.4,79.8,29.93,SE,135,0.0,0.0,98,0.00,CLR,,0.00,WeatherDisplay:10.37,2013-07-08 08:47:00,
2013-07-08 04:52:00,80.4,79.8,29.93,SE,135,0.0,0.0,98,0.00,CLR,,0.00,WeatherDisplay:10.37,2013-07-08 08:52:00,
2013-07-08 04:57:00,80.4,79.8,28.97,SE,135,0.0,0.0,98,0.00,CLR,,0.00,WeatherDisplay:10.37,2013-07-08 08:57:00,
2013-07-08 05:02:00,80.4,79.8,28.97,SE,135,0.0,0.0,98,0.00,CLR,,0.00,WeatherDisplay:10.37,2013-07-08 09:02:00,
2013-07-08 05:07:00,80.4,79.8,28.97,SE,135,0.0,0.0,98,0.00,CLR,,0.00,WeatherDisplay:10.37,2013-07-08 09:07:00,
2013-07-08 05:12:00,80.4,79.8,28.36,SE,135,0.0,0.0,98,0.00,CLR,,0.00,WeatherDisplay:10.37,2013-07-08 09:12:00,
2013-07-08 05:17:00,80.4,79.8,28.36,SE,135,0.0,0.0,98,0.00,CLR,,0.00,WeatherDisplay:10.37,2013-07-08 09:17:00,
2013-07-08 05:22:00,80.4,79.8,27.96,SE,135,0.0,0.0,98,0.00,CLR,,0.00,WeatherDisplay:10.37,2013-07-08 09:22:00,
2013-07-08 05:27:00,80.2,79.6,27.96,SE,135,0.0,0.0,98,0.00,CLR,,0.00,WeatherDisplay:10.37,2013-07-08 09:27:00,
2013-07-08 05:32:00,80.2,79.6,27.96,SE,135,0.0,0.0,98,0.00,CLR,,0.00,WeatherDisplay:10.37,2013-07-08 09:32:00,
2013-07-08 05:37:00,80.2,79.6,27.66,SE,135,0.0,0.0,98,0.00,CLR,,0.00,WeatherDisplay:10.37,2013-07-08 09:37:00,
2013-07-08 05:42:00,80.2,79.6,27.66,SE,135,0.0,0.0,98,0.00,CLR,,0.00,WeatherDisplay:10.37,2013-07-08 09:42:00,
2013-07-08 05:47:00,80.2,79.6,29.35,SE,135,0.0,0.0,98,0.00,CLR,,0.00,WeatherDisplay:10.37,2013-07-08 09:47:00,
2013-07-08 05:52:00,80.2,79.6,29.35,SE,135,0.0,0.0,98,0.00,CLR,,0.00,WeatherDisplay:10.37,2013-07-08 09:52:00,
2013-07-08 05:57:00,80.2,79.6,29.35,SE,135,0.0,0.0,98,0.00,CLR,,0.00,WeatherDisplay:10.37,2013-07-08 09:57:00,
2013-07-08 06:02:00,80.2,79.6,31.09,SE,135,0.0,0.0,98,0.00,CLR,,0.00,WeatherDisplay:10.37,2013-07-08 10:02:00,
2013-07-08 06:07:00,79.9,79.3,31.09,SE,135,0.0,0.0,98,0.00,CLR,,0.00,WeatherDisplay:10.37,2013-07-08 10:07:00,
2013-07-08 06:12:00,79.9,79.3,32.11,SE,135,0.0,0.0,98,0.00,CLR,,0.00,WeatherDisplay:10.37,2013-07-08 10:12:00,
2013-07-08 06:17:00,79.9,79.3,32.11,SE,135,0.0,0.0,98,0.00,CLR,,0.00,WeatherDisplay:10.37,2013-07-08 10:17:00,
2013-07-08 06:22:00,79.7,79.1,31.09,SE,135,0.0,0.0,98,0.00,CLR,,0.00,WeatherDisplay:10.37,2013-07-08 10:22:00,
2013-07-08 06:27:00,79.7,79.1,31.09,SE,135,0.0,0.0,98,0.00,CLR,,0.00,WeatherDisplay:10.37,2013-07-08 10:27:00,
2013-07-08 06:32:00,79.5,78.9,31.09,SE,135,0.0,0.0,98,0.00,CLR,,0.00,WeatherDisplay:10.37,2013-07-08 10:32:00,
2013-07-08 06:37:00,79.5,78.9,31.09,SE,135,0.0,0.0,98,0.00,CLR,,0.00,WeatherDisplay:10.37,2013-07-08 10:37:00,
2013-07-08 06:42:00,79.5,78.9,31.09,SE,135,0.0,0.0,98,0.00,CLR,,0.00,WeatherDisplay:10.37,2013-07-08 10:42:00,
2013-07-08 06:47:00,79.5,78.9,31.09,SE,135,0.0,0.0,98,0.00,CLR,,0.00,WeatherDisplay:10.37,2013-07-08 10:47:00,
2013-07-08 06:52:00,79.5,78.9,31.09,SE,135,0.0,0.0,98,0.00,CLR,,0.00,WeatherDisplay:10.37,2013-07-08 10:52:00,
2013-07-08 06:57:00,79.5,78.9,31.09,SE,135,0.0,0.0,98,0.00,CLR,,0.00,WeatherDisplay:10.37,2013-07-08 10:57:00,
2013-07-08 07:02:00,79.7,79.1,31.09,SE,135,0.0,0.0,98,0.00,CLR,,0.00,WeatherDisplay:10.37,2013-07-08 11:02:00,
2013-07-08 07:07:00,79.7,79.1,31.09,SE,135,0.0,0.0,98,0.00,CLR,,0.00,WeatherDisplay:10.37,2013-07-08 11:07:00,
2013-07-08 07:12:00,80.2,79.6,31.47,SE,135,1.1,0.0,98,0.00,CLR,,0.00,WeatherDisplay:10.37,2013-07-08 11:12:00,
2013-07-08 07:17:00,80.2,79.6,31.47,SE,135,0.0,0.0,98,0.00,CLR,,0.00,WeatherDisplay:10.37,2013-07-08 11:17:00,
2013-07-08 07:22:00,80.4,79.8,29.86,SE,135,0.0,0.0,98,0.00,CLR,,0.00,WeatherDisplay:10.37,2013-07-08 11:22:00,
2013-07-08 07:27:00,80.6,80.0,29.86,SE,135,0.0,0.0,98,0.00,CLR,,0.00,WeatherDisplay:10.37,2013-07-08 11:27:00,
2013-07-08 07:32:00,80.8,80.2,29.86,SE,135,0.0,0.0,98,0.00,CLR,,0.00,WeatherDisplay:10.37,2013-07-08 11:32:00,
2013-07-08 07:37:00,81.0,80.4,29.96,SE,135,0.0,0.0,98,0.00,CLR,,0.00,WeatherDisplay:10.37,2013-07-08 11:37:00,
2013-07-08 07:42:00,81.3,80.7,29.96,SE,135,0.0,0.0,98,0.00,CLR,,0.00,WeatherDisplay:10.37,2013-07-08 11:42:00,
2013-07-08 07:47:00,81.9,81.3,29.27,SE,135,1.1,0.0,98,0.00,CLR,,0.00,WeatherDisplay:10.37,2013-07-08 11:47:00,
2013-07-08 07:52:00,82.0,81.4,29.27,SE,135,1.1,1.1,98,0.00,CLR,,0.00,WeatherDisplay:10.37,2013-07-08 11:52:00,
2013-07-08 07:57:00,82.4,81.8,29.27,SE,135,2.3,2.3,98,0.00,CLR,,0.00,WeatherDisplay:10.37,2013-07-08 11:57:00,
2013-07-08 08:02:00,82.6,82.0,28.20,SE,135,0.0,0.0,98,0.00,CLR,,0.00,WeatherDisplay:10.37,2013-07-08 12:02:00,
2013-07-08 08:07:00,82.9,82.3,28.20,SE,135,1.1,1.1,98,0.00,CLR,,0.00,WeatherDisplay:10.37,2013-07-08 12:07:00,
2013-07-08 08:12:00,83.1,82.5,27.58,SE,135,1.1,0.0,98,0.00,CLR,,0.00,WeatherDisplay:10.37,2013-07-08 12:12:00,
2013-07-08 08:17:00,83.3,82.7,27.58,SE,135,1.1,1.1,98,0.00,CLR,,0.00,WeatherDisplay:10.37,2013-07-08 12:17:00,
2013-07-08 08:22:00,83.7,83.1,27.22,SE,135,2.3,0.0,98,0.00,CLR,,0.00,WeatherDisplay:10.37,2013-07-08 12:22:00,
2013-07-08 08:27:00,83.7,83.1,27.22,SE,135,4.6,4.6,98,0.00,CLR,,0.00,WeatherDisplay:10.37,2013-07-08 12:27:00,
2013-07-08 08:32:00,84.0,83.4,27.22,SSE,158,1.1,0.0,98,0.00,CLR,,0.00,WeatherDisplay:10.37,2013-07-08 12:32:00,
2013-07-08 08:37:00,84.4,83.8,26.99,SSE,158,1.1,1.1,98,0.00,CLR,,0.00,WeatherDisplay:10.37,2013-07-08 12:37:00,
2013-07-08 08:42:00,84.6,84.0,26.99,SSE,158,1.1,1.1,98,0.00,CLR,,0.00,WeatherDisplay:10.37,2013-07-08 12:42:00,
2013-07-08 08:47:00,84.9,84.3,27.09,SSE,158,0.0,0.3,98,0.00,CLR,,0.00,WeatherDisplay:10.37,2013-07-08 12:47:00,
2013-07-08 08:52:00,85.1,84.5,27.09,SSE,158,1.1,1.1,98,0.00,CLR,,0.00,WeatherDisplay:10.37,2013-07-08 12:52:00,
2013-07-08 08:57:00,85.3,84.7,27.09,SSE,158,0.0,0.0,98,0.00,CLR,,0.00,WeatherDisplay:10.37,2013-07-08 12:57:00,
2013-07-08 09:02:00,85.5,84.9,29.17,SSE,158,1.1,0.0,98,0.00,CLR,,0.00,WeatherDisplay:10.37,2013-07-08 13:02:00,
2013-07-08 09:07:00,86.0,85.4,29.17,SSE,158,1.7,1.7,98,0.00,CLR,,0.00,WeatherDisplay:10.37,2013-07-08 13:07:00,
2013-07-08 09:12:00,86.4,85.8,30.48,SE,135,1.1,0.0,98,0.00,CLR,,0.00,WeatherDisplay:10.37,2013-07-08 13:12:00,
2013-07-08 09:17:00,86.9,86.3,30.48,SSE,158,1.1,1.1,98,0.00,CLR,,0.00,WeatherDisplay:10.37,2013-07-08 13:17:00,
2013-07-08 09:22:00,86.7,86.1,31.22,SSE,158,0.0,0.0,98,0.00,CLR,,0.00,WeatherDisplay:10.37,2013-07-08 13:22:00,
2013-07-08 09:27:00,87.3,86.7,31.22,SSE,158,1.7,1.7,98,0.00,CLR,,0.00,WeatherDisplay:10.37,2013-07-08 13:27:00,
2013-07-08 09:32:00,87.3,86.7,31.22,SSE,158,1.1,1.1,98,0.00,CLR,,0.00,WeatherDisplay:10.37,2013-07-08 13:32:00,
2013-07-08 09:38:00,86.4,85.8,31.77,SSE,158,0.0,0.0,98,0.00,CLR,,0.00,WeatherDisplay:10.37,2013-07-08 13:38:00,
2013-07-08 09:43:00,87.3,86.7,31.77,SSE,158,1.1,1.1,98,0.00,CLR,,0.00,WeatherDisplay:10.37,2013-07-08 13:43:00,
2013-07-08 09:48:00,86.2,85.6,32.05,SSE,158,1.1,0.0,98,0.00,CLR,,0.00,WeatherDisplay:10.37,2013-07-08 13:48:00,
2013-07-08 09:53:00,86.9,86.3,32.05,SSE,158,0.0,0.0,98,0.00,CLR,,0.00,WeatherDisplay:10.37,2013-07-08 13:53:00,
2013-07-08 09:58:00,87.6,87.0,32.05,SSE,158,1.1,1.1,98,0.00,CLR,,0.00,WeatherDisplay:10.37,2013-07-08 13:58:00,
2013-07-08 10:03:00,87.8,87.2,30.00,SSE,158,1.1,0.0,98,0.00,CLR,,0.00,WeatherDisplay:10.37,2013-07-08 14:03:00,
2013-07-08 10:08:00,88.0,87.4,30.00,SSE,158,0.0,0.3,98,0.00,CLR,,0.00,WeatherDisplay:10.37,2013-07-08 14:08:00,
2013-07-08 10:13:00,86.5,85.9,28.51,SSE,158,0.0,0.7,98,0.00,CLR,,0.00,WeatherDisplay:10.37,2013-07-08 14:13:00,
2013-07-08 10:18:00,86.5,85.9,28.51,SSE,158,0.0,0.0,98,0.00,CLR,,0.00,WeatherDisplay:10.37,2013-07-08 14:18:00,
2013-07-08 10:23:00,86.4,85.8,27.64,SSE,158,1.1,0.0,98,0.00,CLR,,0.00,WeatherDisplay:10.37,2013-07-08 14:23:00,
2013-07-08 10:28:00,87.4,86.8,27.64,East,90,5.8,5.8,98,0.00,CLR,,0.00,WeatherDisplay:10.37,2013-07-08 14:28:00,
2013-07-08 10:33:00,87.6,87.0,27.64,ESE,112,0.0,0.0,98,0.00,CLR,,0.00,WeatherDisplay:10.37,2013-07-08 14:33:00,
2013-07-08 10:38:00,86.4,85.8,27.10,East,90,1.1,1.1,98,0.00,CLR,,0.00,WeatherDisplay:10.37,2013-07-08 14:38:00,
2013-07-08 10:43:00,86.5,85.9,27.10,ESE,112,3.5,3.5,98,0.00,CLR,,0.00,WeatherDisplay:10.37,2013-07-08 14:43:00,
2013-07-08 10:48:00,87.6,87.0,28.69,ESE,112,0.0,0.0,98,0.00,CLR,,0.00,WeatherDisplay:10.37,2013-07-08 14:48:00,
2013-07-08 10:53:00,88.7,88.1,28.69,SE,135,1.7,1.7,98,0.00,CLR,,0.00,WeatherDisplay:10.37,2013-07-08 14:53:00,
2013-07-08 10:58:00,89.1,88.5,28.69,SSE,158,0.0,0.0,98,0.00,CLR,,0.00,WeatherDisplay:10.37,2013-07-08 14:58:00,
2013-07-08 11:03:00,87.4,86.8,30.10,South,180,1.1,1.1,98,0.00,CLR,,0.00,WeatherDisplay:10.37,2013-07-08 15:03:00,
2013-07-08 11:08:00,87.8,87.2,30.10,SE,135,0.0,0.0,98,0.00,CLR,,0.00,WeatherDisplay:10.37,2013-07-08 15:08:00,
2013-07-08 11:13:00,88.9,88.3,30.93,SSE,158,0.0,0.0,98,0.00,CLR,,0.00,WeatherDisplay:10.37,2013-07-08 15:13:00,
2013-07-08 11:18:00,90.1,89.5,30.93,SSE,158,0.0,0.0,98,0.00,CLR,,0.00,WeatherDisplay:10.37,2013-07-08 15:18:00,
2013-07-08 11:23:00,89.8,89.2,31.27,SSE,158,1.1,0.0,98,0.00,CLR,,0.00,WeatherDisplay:10.37,2013-07-08 15:23:00,
2013-07-08 11:28:00,89.2,88.6,31.27,South,180,1.1,1.1,98,0.00,CLR,,0.00,WeatherDisplay:10.37,2013-07-08 15:28:00,
2013-07-08 11:33:00,88.3,87.7,31.27,South,180,1.1,1.1,98,0.00,CLR,,0.00,WeatherDisplay:10.37,2013-07-08 15:33:00,
2013-07-08 11:38:00,88.7,88.1,31.58,South,180,1.1,1.1,98,0.00,CLR,,0.00,WeatherDisplay:10.37,2013-07-08 15:38:00,
2013-07-08 11:43:00,88.9,88.3,31.58,SSE,158,0.0,0.0,98,0.00,CLR,,0.00,WeatherDisplay:10.37,2013-07-08 15:43:00,
2013-07-08 11:48:00,89.6,89.0,31.82,SE,135,1.1,1.1,98,0.00,CLR,,0.00,WeatherDisplay:10.37,2013-07-08 15:48:00,
2013-07-08 11:53:00,89.1,88.5,31.82,South,180,0.0,0.0,98,0.00,CLR,,0.00,WeatherDisplay:10.37,2013-07-08 15:53:00,
2013-07-08 11:58:00,88.9,88.3,31.82,South,180,1.1,1.1,98,0.00,CLR,,0.00,WeatherDisplay:10.37,2013-07-08 15:58:00,
2013-07-08 12:03:00,88.2,87.6,31.92,SSE,158,1.1,1.1,98,0.00,CLR,,0.00,WeatherDisplay:10.37,2013-07-08 16:03:00,
2013-07-08 12:08:00,88.5,87.9,31.92,SSE,158,0.0,0.0,98,0.00,CLR,,0.00,WeatherDisplay:10.37,2013-07-08 16:08:00,
2013-07-08 12:13:00,88.7,88.1,32.10,SSE,158,0.0,0.0,98,0.00,CLR,,0.00,WeatherDisplay:10.37,2013-07-08 16:13:00,
2013-07-08 12:18:00,90.0,89.4,32.10,SE,135,1.1,1.1,98,0.00,CLR,,0.00,WeatherDisplay:10.37,2013-07-08 16:18:00,
2013-07-08 12:23:00,89.2,88.6,32.29,SSE,158,4.6,4.6,98,0.00,CLR,,0.00,WeatherDisplay:10.37,2013-07-08 16:23:00,
2013-07-08 12:28:00,90.3,89.7,32.29,SSE,158,0.0,0.0,98,0.00,CLR,,0.00,WeatherDisplay:10.37,2013-07-08 16:28:00,
2013-07-08 12:33:00,90.0,89.4,32.29,ESE,112,1.1,1.1,98,0.00,CLR,,0.00,WeatherDisplay:10.37,2013-07-08 16:33:00,
2013-07-08 12:38:00,89.8,89.2,32.31,SSE,158,1.1,1.1,98,0.00,CLR,,0.00,WeatherDisplay:10.37,2013-07-08 16:38:00,
2013-07-08 12:43:00,90.1,89.5,32.31,SSE,158,1.1,1.1,98,0.00,CLR,,0.00,WeatherDisplay:10.37,2013-07-08 16:43:00,
2013-07-08 12:48:00,90.3,89.7,32.26,SSE,158,1.1,1.1,98,0.00,CLR,,0.00,WeatherDisplay:10.37,2013-07-08 16:48:00,
2013-07-08 12:53:00,89.8,89.2,32.26,SSE,158,0.0,0.0,98,0.00,CLR,,0.00,WeatherDisplay:10.37,2013-07-08 16:53:00,
2013-07-08 12:58:00,90.7,90.1,32.26,SSE,158,1.1,1.1,98,0.00,CLR,,0.00,WeatherDisplay:10.37,2013-07-08 16:58:00,
2013-07-08 13:03:00,90.3,89.7,32.23,SSE,158,4.6,4.6,98,0.00,CLR,,0.00,WeatherDisplay:10.37,2013-07-08 17:03:00,
2013-07-08 13:08:00,90.3,89.7,32.23,South,180,1.1,1.1,98,0.00,CLR,,0.00,WeatherDisplay:10.37,2013-07-08 17:08:00,
2013-07-08 13:13:00,90.7,90.1,30.51,SE,135,1.7,1.7,98,0.00,CLR,,0.00,WeatherDisplay:10.37,2013-07-08 17:13:00,
2013-07-08 13:18:00,91.0,90.4,30.51,SE,135,2.2,2.2,98,0.00,CLR,,0.00,WeatherDisplay:10.37,2013-07-08 17:18:00,
2013-07-08 13:23:00,90.0,89.4,28.86,SSE,158,1.1,1.1,98,0.00,CLR,,0.00,WeatherDisplay:10.37,2013-07-08 17:23:00,
2013-07-08 13:28:00,90.7,90.1,28.86,SSE,158,1.1,1.1,98,0.00,CLR,,0.00,WeatherDisplay:10.37,2013-07-08 17:28:00,
2013-07-08 13:33:00,90.3,89.7,28.86,SE,135,1.1,1.1,98,0.00,CLR,,0.00,WeatherDisplay:10.37,2013-07-08 17:33:00,
2013-07-08 13:38:00,91.0,90.4,27.85,SSE,158,1.1,1.1,98,0.00,CLR,,0.00,WeatherDisplay:10.37,2013-07-08 17:38:00,
2013-07-08 13:43:00,90.5,85.0,27.85,SSE,158,1.7,1.7,84,0.00,CLR,,0.00,WeatherDisplay:10.37,2013-07-08 17:43:00,
2013-07-08 13:48:00,91.8,86.6,28.83,SSE,158,1.1,0.0,85,0.00,CLR,,0.00,WeatherDisplay:10.37,2013-07-08 17:48:00,
2013-07-08 13:53:00,90.9,83.9,28.83,SSE,158,3.5,3.5,80,0.00,CLR,,0.00,WeatherDisplay:10.37,2013-07-08 17:53:00,
2013-07-08 13:58:00,91.8,87.4,29.86,SSE,158,1.1,1.1,87,0.00,CLR,,0.00,WeatherDisplay:10.37,2013-07-08 17:58:00,
2013-07-08 14:03:00,91.0,84.4,29.86,SE,135,3.5,3.5,81,0.00,CLR,,0.00,WeatherDisplay:10.37,2013-07-08 18:03:00,
2013-07-08 14:08:00,91.6,85.3,29.86,SE,135,0.0,0.0,82,0.00,CLR,,0.00,WeatherDisplay:10.37,2013-07-08 18:08:00,
2013-07-08 14:14:00,90.7,84.1,30.36,SSE,158,0.0,0.0,81,0.00,CLR,,0.00,WeatherDisplay:10.37,2013-07-08 18:14:00,
2013-07-08 14:19:00,91.4,86.6,30.36,SSE,158,1.1,0.0,86,0.00,CLR,,0.00,WeatherDisplay:10.37,2013-07-08 18:19:00,
2013-07-08 14:24:00,90.7,84.1,30.68,SSE,158,1.1,1.1,81,0.00,CLR,,0.00,WeatherDisplay:10.37,2013-07-08 18:24:00,
2013-07-08 14:29:00,91.4,87.3,30.68,SSE,158,2.2,2.2,88,0.00,CLR,,0.00,WeatherDisplay:10.37,2013-07-08 18:29:00,
2013-07-08 14:34:00,90.5,86.8,30.95,SSE,158,1.7,1.7,89,0.00,CLR,,0.00,WeatherDisplay:10.37,2013-07-08 18:34:00,
2013-07-08 14:39:00,90.7,86.7,30.95,SE,135,1.1,0.0,88,0.00,CLR,,0.00,WeatherDisplay:10.37,2013-07-08 18:39:00,
2013-07-08 14:45:00,90.1,89.5,30.95,SSE,158,1.1,1.1,98,0.00,CLR,,0.00,WeatherDisplay:10.37,2013-07-08 18:45:00,
2013-07-08 14:50:00,89.8,89.2,30.95,SSE,158,1.1,1.1,98,0.00,CLR,,0.00,WeatherDisplay:10.37,2013-07-08 18:50:00,
2013-07-08 14:55:00,89.8,89.2,30.95,SSE,158,0.0,0.0,98,0.00,CLR,,0.00,WeatherDisplay:10.37,2013-07-08 18:55:00,
2013-07-08 15:00:00,89.6,89.0,31.05,South,180,1.1,1.1,98,0.00,CLR,,0.00,WeatherDisplay:10.37,2013-07-08 19:00:00,
2013-07-08 15:05:00,90.0,89.4,31.05,South,180,1.7,1.7,98,0.00,CLR,,0.00,WeatherDisplay:10.37,2013-07-08 19:05:00,
2013-07-08 15:10:00,89.2,88.6,31.07,South,180,1.1,1.1,98,0.00,CLR,,0.00,WeatherDisplay:10.37,2013-07-08 19:10:00,
2013-07-08 15:15:00,88.5,87.9,31.07,South,180,1.1,1.1,98,0.00,CLR,,0.00,WeatherDisplay:10.37,2013-07-08 19:15:00,
2013-07-08 15:21:00,89.6,89.0,31.07,South,180,0.0,0.0,98,0.00,CLR,,0.00,WeatherDisplay:10.37,2013-07-08 19:21:00,
2013-07-08 15:26:00,89.4,88.8,31.17,South,180,1.1,0.0,98,0.00,CLR,,0.00,WeatherDisplay:10.37,2013-07-08 19:26:00,
2013-07-08 15:31:00,89.4,88.8,31.17,SSE,158,1.1,1.1,98,0.00,CLR,,0.00,WeatherDisplay:10.37,2013-07-08 19:31:00,
2013-07-08 15:36:00,89.1,88.5,31.01,SSE,158,0.0,0.0,98,0.00,CLR,,0.00,WeatherDisplay:10.37,2013-07-08 19:36:00,
2013-07-08 15:41:00,89.1,88.5,31.01,South,180,0.0,0.0,98,0.00,CLR,,0.00,WeatherDisplay:10.37,2013-07-08 19:41:00,
2013-07-08 15:46:00,89.4,88.8,30.87,South,180,1.1,1.1,98,0.00,CLR,,0.00,WeatherDisplay:10.37,2013-07-08 19:46:00,
2013-07-08 15:51:00,90.5,89.9,30.87,South,180,1.1,1.1,98,0.00,CLR,,0.00,WeatherDisplay:10.37,2013-07-08 19:51:00,
2013-07-08 15:56:00,89.6,89.0,30.87,South,180,1.1,1.1,98,0.00,CLR,,0.00,WeatherDisplay:10.37,2013-07-08 19:56:00,
2013-07-08 16:01:00,89.2,88.6,30.83,South,180,2.2,2.2,98,0.00,CLR,,0.00,WeatherDisplay:10.37,2013-07-08 20:01:00,
2013-07-08 16:06:00,89.1,88.5,30.83,South,180,0.0,0.0,98,0.00,CLR,,0.00,WeatherDisplay:10.37,2013-07-08 20:06:00,
2013-07-08 16:11:00,89.4,88.8,30.77,South,180,0.0,0.3,98,0.00,CLR,,0.00,WeatherDisplay:10.37,2013-07-08 20:11:00,
2013-07-08 16:16:00,88.7,88.1,30.77,South,180,1.1,1.1,98,0.00,CLR,,0.00,WeatherDisplay:10.37,2013-07-08 20:16:00,
2013-07-08 16:21:00,88.7,88.1,30.87,South,180,1.7,1.7,98,0.00,CLR,,0.00,WeatherDisplay:10.37,2013-07-08 20:21:00,
2013-07-08 16:26:00,88.5,87.9,30.87,SSE,158,0.0,0.3,98,0.00,CLR,,0.00,WeatherDisplay:10.37,2013-07-08 20:26:00,
2013-07-08 16:32:00,89.4,88.8,30.87,SSE,158,0.0,0.0,98,0.00,CLR,,0.00,WeatherDisplay:10.37,2013-07-08 20:32:00,
2013-07-08 16:37:00,89.1,88.5,30.92,SSE,158,1.1,1.1,98,0.00,CLR,,0.00,WeatherDisplay:10.37,2013-07-08 20:37:00,
2013-07-08 16:43:00,91.2,88.5,30.92,SSE,158,0.0,0.0,92,0.00,CLR,,0.00,WeatherDisplay:10.37,2013-07-08 20:43:00,
2013-07-08 16:48:00,91.6,87.5,30.94,SSE,158,1.1,1.1,88,0.00,CLR,,0.00,WeatherDisplay:10.37,2013-07-08 20:48:00,
2013-07-08 16:53:00,90.9,87.2,30.94,SSE,158,1.1,0.0,89,0.00,CLR,,0.00,WeatherDisplay:10.37,2013-07-08 20:53:00,
2013-07-08 16:59:00,91.6,87.5,30.90,SSE,158,3.5,3.5,88,0.00,CLR,,0.00,WeatherDisplay:10.37,2013-07-08 20:59:00,
2013-07-08 17:04:00,91.9,86.0,30.90,SSE,158,1.1,1.1,83,0.00,CLR,,0.00,WeatherDisplay:10.37,2013-07-08 21:04:00,
2013-07-08 17:09:00,90.1,86.8,30.90,SSE,158,1.1,1.1,90,0.00,CLR,,0.00,WeatherDisplay:10.37,2013-07-08 21:09:00,
2013-07-08 17:14:00,89.1,88.5,30.98,SSE,158,0.0,0.0,98,0.00,CLR,,0.00,WeatherDisplay:10.37,2013-07-08 21:14:00,
2013-07-08 17:19:00,88.9,88.3,30.98,SSE,158,0.0,0.0,98,0.00,CLR,,0.00,WeatherDisplay:10.37,2013-07-08 21:19:00,
2013-07-08 17:24:00,89.1,88.5,31.18,SSE,158,0.0,0.0,98,0.00,CLR,,0.00,WeatherDisplay:10.37,2013-07-08 21:24:00,
2013-07-08 17:29:00,88.7,88.1,31.18,SSE,158,1.1,1.1,98,0.00,CLR,,0.00,WeatherDisplay:10.37,2013-07-08 21:29:00,
2013-07-08 17:34:00,87.8,87.2,31.19,SSE,158,5.8,5.8,98,0.00,CLR,,0.00,WeatherDisplay:10.37,2013-07-08 21:34:00,
2013-07-08 17:39:00,87.8,87.2,31.19,SSE,158,1.1,1.1,98,0.00,CLR,,0.00,WeatherDisplay:10.37,2013-07-08 21:39:00,
2013-07-08 17:45:00,87.4,86.8,31.19,SSE,158,4.6,4.6,98,0.00,CLR,,0.00,WeatherDisplay:10.37,2013-07-08 21:45:00,
2013-07-08 17:51:00,87.4,86.8,31.30,SSE,158,1.1,1.1,98,0.00,CLR,,0.00,WeatherDisplay:10.37,2013-07-08 21:51:00,
2013-07-08 17:56:00,87.4,86.8,31.30,SSE,158,1.1,1.1,98,0.00,CLR,,0.00,WeatherDisplay:10.37,2013-07-08 21:56:00,
2013-07-08 18:01:00,87.4,86.8,31.48,SSE,158,1.1,1.1,98,0.00,CLR,,0.00,WeatherDisplay:10.37,2013-07-08 22:01:00,
2013-07-08 18:06:00,87.4,86.8,31.48,SSE,158,0.0,0.3,98,0.00,CLR,,0.00,WeatherDisplay:10.37,2013-07-08 22:06:00,
2013-07-08 18:12:00,87.1,86.5,31.58,SE,135,1.1,1.1,98,0.00,CLR,,0.00,WeatherDisplay:10.37,2013-07-08 22:12:00,
2013-07-08 18:17:00,86.5,85.9,31.58,SSE,158,0.0,0.0,98,0.00,CLR,,0.00,WeatherDisplay:10.37,2013-07-08 22:17:00,
2013-07-08 18:22:00,86.4,85.8,31.65,SSE,158,0.0,0.0,98,0.00,CLR,,0.00,WeatherDisplay:10.37,2013-07-08 22:22:00,
2013-07-08 18:27:00,86.4,85.8,31.65,SSE,158,3.7,3.7,98,0.00,CLR,,0.00,WeatherDisplay:10.37,2013-07-08 22:27:00,
2013-07-08 18:33:00,86.0,85.4,31.65,SSE,158,1.1,1.1,98,0.00,CLR,,0.00,WeatherDisplay:10.37,2013-07-08 22:33:00,
2013-07-08 18:38:00,86.0,85.4,31.81,SSE,158,0.0,0.0,98,0.00,CLR,,0.00,WeatherDisplay:10.37,2013-07-08 22:38:00,
2013-07-08 18:43:00,86.0,85.4,31.81,SSE,158,0.0,0.0,98,0.00,CLR,,0.00,WeatherDisplay:10.37,2013-07-08 22:43:00,
2013-07-08 18:48:00,86.0,85.4,31.94,SSE,158,1.1,0.0,98,0.00,CLR,,0.00,WeatherDisplay:10.37,2013-07-08 22:48:00,
2013-07-08 18:53:00,85.8,85.2,31.94,SSE,158,1.1,0.0,98,0.00,CLR,,0.00,WeatherDisplay:10.37,2013-07-08 22:53:00,
2013-07-08 18:59:00,85.6,85.0,32.03,SSE,158,0.0,0.0,98,0.00,CLR,,0.00,WeatherDisplay:10.37,2013-07-08 22:59:00,
2013-07-08 19:04:00,85.1,84.5,32.03,SSE,158,1.1,1.1,98,0.00,CLR,,0.00,WeatherDisplay:10.37,2013-07-08 23:04:00,
2013-07-08 19:09:00,84.6,84.0,32.03,SSE,158,0.0,0.0,98,0.00,CLR,,0.00,WeatherDisplay:10.37,2013-07-08 23:09:00,
2013-07-08 19:14:00,84.6,84.0,32.29,SSE,158,0.0,0.0,98,0.00,CLR,,0.00,WeatherDisplay:10.37,2013-07-08 23:14:00,
2013-07-08 19:19:00,84.6,84.0,32.29,SSE,158,0.0,0.0,98,0.00,CLR,,0.00,WeatherDisplay:10.37,2013-07-08 23:19:00,
2013-07-08 19:25:00,84.2,83.6,31.81,ENE,68,0.0,0.0,98,0.00,CLR,,0.00,WeatherDisplay:10.37,2013-07-08 23:25:00,
2013-07-08 19:30:00,84.2,83.6,31.81,ENE,68,1.1,1.1,98,0.00,CLR,,0.00,WeatherDisplay:10.37,2013-07-08 23:30:00,
2013-07-08 19:35:00,84.2,83.6,31.81,ENE,68,2.3,2.3,98,0.00,CLR,,0.00,WeatherDisplay:10.37,2013-07-08 23:35:00,
2013-07-08 19:40:00,84.0,83.4,31.81,ENE,68,1.1,1.1,98,0.00,CLR,,0.00,WeatherDisplay:10.37,2013-07-08 23:40:00,
2013-07-08 19:45:00,84.0,83.4,31.81,ENE,68,1.1,1.1,98,0.00,CLR,,0.00,WeatherDisplay:10.37,2013-07-08 23:45:00,
2013-07-08 19:50:00,83.7,83.1,31.81,ENE,68,0.0,0.0,98,0.00,CLR,,0.00,WeatherDisplay:10.37,2013-07-08 23:50:00,
2013-07-08 19:56:00,83.7,83.1,31.81,East,90,1.1,0.0,98,0.00,CLR,,0.00,WeatherDisplay:10.37,2013-07-08 23:56:00,
2013-07-08 20:01:00,83.5,82.9,31.81,East,90,2.3,2.3,98,0.00,CLR,,0.00,WeatherDisplay:10.37,2013-07-09 00:01:00,
2013-07-08 20:06:00,83.3,82.7,31.81,East,90,0.0,0.0,98,0.00,CLR,,0.00,WeatherDisplay:10.37,2013-07-09 00:06:00,
2013-07-08 20:12:00,83.3,82.7,31.81,East,90,1.1,1.1,98,0.00,CLR,,0.00,WeatherDisplay:10.37,2013-07-09 00:12:00,
2013-07-08 20:17:00,83.3,82.7,31.81,East,90,0.0,0.0,98,0.00,CLR,,0.00,WeatherDisplay:10.37,2013-07-09 00:17:00,
2013-07-08 20:22:00,82.4,81.8,31.81,East,90,0.0,0.0,98,0.00,CLR,,0.00,WeatherDisplay:10.37,2013-07-09 00:22:00,
2013-07-08 20:28:00,81.9,81.3,31.81,East,90,1.1,1.1,98,0.00,CLR,,0.00,WeatherDisplay:10.37,2013-07-09 00:28:00,
2013-07-08 20:33:00,81.7,81.1,31.81,East,90,0.0,0.0,98,0.00,CLR,,0.00,WeatherDisplay:10.37,2013-07-09 00:33:00,
2013-07-08 20:38:00,81.3,80.7,31.81,East,90,0.0,0.0,98,0.00,CLR,,0.00,WeatherDisplay:10.37,2013-07-09 00:38:00,
2013-07-08 20:44:00,81.3,80.7,31.81,East,90,0.0,0.0,98,0.00,CLR,,0.00,WeatherDisplay:10.37,2013-07-09 00:44:00,
2013-07-08 20:49:00,81.3,80.7,31.81,East,90,0.0,0.0,98,0.00,CLR,,0.00,WeatherDisplay:10.37,2013-07-09 00:49:00,
2013-07-08 20:54:00,81.3,80.7,31.81,East,90,0.0,0.0,98,0.00,CLR,,0.00,WeatherDisplay:10.37,2013-07-09 00:54:00,
2013-07-08 20:59:00,81.3,80.7,31.13,East,90,0.0,0.0,98,0.00,CLR,,0.00,WeatherDisplay:10.37,2013-07-09 00:59:00,
2013-07-08 21:04:00,81.1,80.5,31.13,East,90,0.0,0.0,98,0.00,CLR,,0.00,WeatherDisplay:10.37,2013-07-09 01:04:00,
2013-07-08 21:09:00,81.1,80.5,31.13,East,90,0.0,0.0,98,0.00,CLR,,0.00,WeatherDisplay:10.37,2013-07-09 01:09:00,
2013-07-08 21:14:00,81.1,80.5,29.70,East,90,0.0,0.0,98,0.00,CLR,,0.00,WeatherDisplay:10.37,2013-07-09 01:14:00,
2013-07-08 21:20:00,81.1,80.5,29.70,East,90,0.0,0.0,98,0.00,CLR,,0.00,WeatherDisplay:10.37,2013-07-09 01:20:00,
2013-07-08 21:25:00,81.1,80.5,29.98,East,90,0.0,0.0,98,0.00,CLR,,0.00,WeatherDisplay:10.37,2013-07-09 01:25:00,
2013-07-08 21:30:00,81.1,80.5,29.98,East,90,0.0,0.0,98,0.00,CLR,,0.00,WeatherDisplay:10.37,2013-07-09 01:30:00,
2013-07-08 21:35:00,81.1,80.5,31.25,East,90,0.0,0.0,98,0.00,CLR,,0.00,WeatherDisplay:10.37,2013-07-09 01:35:00,
2013-07-08 21:40:00,81.1,80.5,31.25,East,90,0.0,0.0,98,0.00,CLR,,0.00,WeatherDisplay:10.37,2013-07-09 01:40:00,
2013-07-08 21:45:00,81.1,80.5,31.25,East,90,0.0,0.0,98,0.00,CLR,,0.00,WeatherDisplay:10.37,2013-07-09 01:45:00,
2013-07-08 21:50:00,81.1,80.5,31.91,East,90,0.0,0.0,98,0.00,CLR,,0.00,WeatherDisplay:10.37,2013-07-09 01:50:00,
2013-07-08 21:55:00,81.1,80.5,31.91,East,90,0.0,0.0,98,0.00,CLR,,0.00,WeatherDisplay:10.37,2013-07-09 01:55:00,
2013-07-08 22:00:00,81.1,80.5,32.23,East,90,0.0,0.0,98,0.00,CLR,,0.00,WeatherDisplay:10.37,2013-07-09 02:00:00,
2013-07-08 22:05:00,81.1,80.5,32.23,East,90,0.0,0.0,98,0.00,CLR,,0.00,WeatherDisplay:10.37,2013-07-09 02:05:00,
2013-07-08 22:10:00,81.1,80.5,31.25,East,90,0.0,0.0,98,0.00,CLR,,0.00,WeatherDisplay:10.37,2013-07-09 02:10:00,
2013-07-08 22:15:00,81.1,80.5,31.25,East,90,0.0,0.0,98,0.00,CLR,,0.00,WeatherDisplay:10.37,2013-07-09 02:15:00,
2013-07-08 22:20:00,81.1,80.5,31.25,East,90,0.0,0.0,98,0.00,CLR,,0.00,WeatherDisplay:10.37,2013-07-09 02:20:00,
2013-07-08 22:25:00,81.0,80.4,31.25,East,90,0.0,0.0,98,0.00,CLR,,0.00,WeatherDisplay:10.37,2013-07-09 02:25:00,
2013-07-08 22:31:00,81.0,80.4,31.25,East,90,0.0,0.0,98,0.00,CLR,,0.00,WeatherDisplay:10.37,2013-07-09 02:31:00,
2013-07-08 22:37:00,80.8,80.2,31.25,East,90,0.0,0.0,98,0.00,CLR,,0.00,WeatherDisplay:10.37,2013-07-09 02:37:00,
2013-07-08 22:42:00,80.8,80.2,31.25,East,90,0.0,0.0,98,0.00,CLR,,0.00,WeatherDisplay:10.37,2013-07-09 02:42:00,
2013-07-08 22:47:00,80.8,80.2,31.25,East,90,0.0,0.0,98,0.00,CLR,,0.00,WeatherDisplay:10.37,2013-07-09 02:47:00,
2013-07-08 22:52:00,80.8,80.2,31.25,East,90,0.0,0.0,98,0.00,CLR,,0.00,WeatherDisplay:10.37,2013-07-09 02:52:00,
2013-07-08 22:57:00,80.8,80.2,31.25,East,90,0.0,0.0,98,0.00,CLR,,0.00,WeatherDisplay:10.37,2013-07-09 02:57:00,
2013-07-08 23:02:00,80.8,80.2,31.25,East,90,0.0,0.0,98,0.00,CLR,,0.00,WeatherDisplay:10.37,2013-07-09 03:02:00,
2013-07-08 23:07:00,80.8,80.2,31.25,East,90,0.0,0.0,98,0.00,CLR,,0.00,WeatherDisplay:10.37,2013-07-09 03:07:00,
2013-07-08 23:13:00,80.8,80.2,31.25,East,90,0.0,0.0,98,0.00,CLR,,0.00,WeatherDisplay:10.37,2013-07-09 03:13:00,
2013-07-08 23:18:00,80.8,80.2,31.25,East,90,0.0,0.0,98,0.00,CLR,,0.00,WeatherDisplay:10.37,2013-07-09 03:18:00,
2013-07-08 23:23:00,80.8,80.2,31.25,East,90,0.0,0.0,98,0.00,CLR,,0.00,WeatherDisplay:10.37,2013-07-09 03:23:00,
2013-07-08 23:28:00,80.8,80.2,31.25,East,90,0.0,0.0,98,0.00,CLR,,0.00,WeatherDisplay:10.37,2013-07-09 03:28:00,
2013-07-08 23:33:00,80.8,80.2,31.25,East,90,0.0,0.0,98,0.00,CLR,,0.00,WeatherDisplay:10.37,2013-07-09 03:33:00,
2013-07-08 23:38:00,81.0,80.4,31.25,East,90,0.0,0.0,98,0.00,CLR,,0.00,WeatherDisplay:10.37,2013-07-09 03:38:00,
2013-07-08 23:44:00,81.0,80.4,31.25,East,90,0.0,0.0,98,0.00,CLR,,0.00,WeatherDisplay:10.37,2013-07-09 03:44:00,
2013-07-08 23:49:00,81.0,80.4,31.25,East,90,0.0,0.0,98,0.00,CLR,,0.00,WeatherDisplay:10.37,2013-07-09 03:49:00,
2013-07-08 23:54:00,81.1,80.5,31.25,East,90,0.0,0.0,98,0.00,CLR,,0.00,WeatherDisplay:10.37,2013-07-09 03:54:00,
2013-07-08 23:59:00,81.1,80.5,31.25,East,90,0.0,0.0,98,0.00,CLR,,0.00,WeatherDisplay:10.37,2013-07-09 03:59:00,